Time;durP1;ratioP1;P1;durP2;ratioP2;P2;SDS_P1;SDS_P2;PMS_P1;PMS_P2;Temp;Humidity;BMP_temperature;BMP_pressure;BME280_temperature;BME280_humidity;BME280_pressure;Samples;Min_cycle;Max_cycle;Signal;HPM_P1;HPM_P2
2022/06/29 00:01:19;;;;;;;16.97;11.00;;;;;;;18.35;75.50;99101.98;1473923;79;81187;-68
2022/06/29 00:03:20;;;;;;;24.87;10.93;;;;;;;18.36;75.49;99109.02;1479281;79;21016;-69
2022/06/29 00:05:23;;;;;;;20.55;11.38;;;;;;;18.37;75.49;99101.39;1474987;79;21071;-69
2022/06/29 00:07:24;;;;;;;16.42;10.55;;;;;;;18.37;75.49;99100.05;1475332;79;81087;-69
2022/06/29 00:09:25;;;;;;;18.80;11.12;;;;;;;18.38;75.48;99101.73;1476263;79;20986;-68
2022/06/29 00:11:26;;;;;;;19.02;10.60;;;;;;;18.38;75.48;99103.06;1474937;79;21012;-69
2022/06/29 00:13:27;;;;;;;14.30;11.10;;;;;;;18.38;75.43;99099.55;1476055;79;81889;-69
2022/06/29 00:15:28;;;;;;;13.08;10.65;;;;;;;18.37;75.49;99088.52;1462542;79;20990;-69
2022/06/29 00:17:31;;;;;;;19.82;10.95;;;;;;;18.37;75.48;99080.50;1462238;79;21014;-69
2022/06/29 00:19:32;;;;;;;12.85;9.85;;;;;;;18.35;75.48;99077.13;1460582;79;81855;-70
2022/06/29 00:21:34;;;;;;;20.10;10.30;;;;;;;18.33;75.50;99078.58;1461321;79;21115;-69
2022/06/29 00:23:35;;;;;;;14.93;10.32;;;;;;;18.32;75.56;99080.88;1459873;79;21021;-70
2022/06/29 00:25:36;;;;;;;18.42;11.40;;;;;;;18.33;75.57;99083.05;1463675;79;81834;-70
2022/06/29 00:27:38;;;;;;;19.62;10.90;;;;;;;18.32;75.66;99082.21;1460495;79;21052;-70
2022/06/29 00:29:39;;;;;;;17.00;10.25;;;;;;;18.30;75.58;99085.97;1463235;79;21051;-70
2022/06/29 00:31:40;;;;;;;17.82;11.05;;;;;;;18.26;75.60;99082.67;1459559;79;81787;-70
2022/06/29 00:33:41;;;;;;;16.40;11.53;;;;;;;18.25;75.61;99078.80;1436317;81;21005;-69
2022/06/29 00:35:42;;;;;;;17.35;11.50;;;;;;;18.21;75.63;99079.05;1461989;79;21060;-69
2022/06/29 00:37:44;;;;;;;25.15;12.85;;;;;;;18.18;75.67;99079.30;1460709;79;80886;-69
2022/06/29 00:39:45;;;;;;;17.17;12.03;;;;;;;18.16;75.70;99079.05;1458641;79;21024;-69
2022/06/29 00:41:47;;;;;;;22.37;12.50;;;;;;;18.13;75.74;99078.80;1453553;80;21078;-69
2022/06/29 00:43:48;;;;;;;14.05;12.05;;;;;;;18.13;75.82;99073.46;1459058;79;81065;-69
2022/06/29 00:45:49;;;;;;;21.93;11.48;;;;;;;18.15;75.84;99073.34;1460348;79;21011;-69
2022/06/29 00:47:50;;;;;;;18.42;12.37;;;;;;;18.15;75.88;99068.88;1437939;81;21053;-70
2022/06/29 00:49:51;;;;;;;21.60;12.18;;;;;;;18.16;75.93;99065.21;1461096;79;81814;-70
2022/06/29 00:52:08;;;;;;;25.00;12.55;;;;;;;18.19;76.00;99067.66;1456989;79;21040;-70
2022/06/29 00:54:13;;;;;;;21.93;11.93;;;;;;;18.18;76.00;99063.29;1462823;79;21820;-69
2022/06/29 00:56:15;;;;;;;17.37;12.45;;;;;;;18.17;75.97;99063.41;1458701;79;81688;-69
2022/06/29 00:58:19;;;;;;;22.45;12.05;;;;;;;18.14;75.95;99056.50;1460304;79;21226;-69
2022/06/29 01:00:20;;;;;;;21.70;12.23;;;;;;;18.11;75.99;99053.20;1462213;79;21497;-69
2022/06/29 01:02:24;;;;;;;38.15;12.00;;;;;;;18.10;76.01;99061.70;1460614;79;81092;-68
2022/06/29 01:04:26;;;;;;;23.87;12.58;;;;;;;18.10;76.04;99055.03;1460483;79;21079;-69
2022/06/29 01:06:27;;;;;;;20.08;12.15;;;;;;;18.12;76.06;99051.75;1459162;79;20985;-68
2022/06/29 01:08:28;;;;;;;18.80;11.88;;;;;;;18.13;76.04;99054.79;1460665;79;81035;-68
2022/06/29 01:10:29;;;;;;;20.12;11.97;;;;;;;17.85;76.02;99006.25;1461879;79;21517;-69
2022/06/29 01:12:31;;;;;;;18.50;12.85;;;;;;;18.11;76.05;99050.54;1463337;79;21018;-69
2022/06/29 01:14:32;;;;;;;21.55;11.73;;;;;;;18.13;76.11;99046.79;1468044;79;82094;-69
2022/06/29 01:16:33;;;;;;;21.48;11.63;;;;;;;18.14;76.11;99047.66;1485918;79;21035;-69
2022/06/29 01:18:35;;;;;;;23.98;10.93;;;;;;;18.15;76.19;99050.20;1485178;79;21665;-69
2022/06/29 01:20:36;;;;;;;19.15;11.45;;;;;;;18.16;76.16;99045.20;1482886;79;80943;-68
2022/06/29 01:22:38;;;;;;;15.78;11.00;;;;;;;18.15;76.13;99046.20;1488108;79;20992;-69
2022/06/29 01:24:40;;;;;;;19.82;11.43;;;;;;;18.14;76.14;99042.32;1467678;80;22249;-69
2022/06/29 01:26:41;;;;;;;17.92;11.68;;;;;;;18.09;76.11;99033.33;1482970;79;81950;-68
2022/06/29 01:28:46;;;;;;;15.23;10.80;;;;;;;18.07;76.15;99035.28;1484101;79;21028;-70
2022/06/29 01:30:46;;;;;;;20.50;11.35;;;;;;;18.05;76.20;99029.20;1482354;79;21019;-69
2022/06/29 01:32:47;;;;;;;26.95;11.45;;;;;;;18.04;76.21;99016.36;1481988;79;82268;-69
2022/06/29 01:34:50;;;;;;;16.87;11.03;;;;;;;18.02;76.24;99012.95;1484257;79;20973;-69
2022/06/29 01:36:51;;;;;;;25.05;11.03;;;;;;;18.00;76.24;99014.06;1484856;79;20977;-69
2022/06/29 01:38:52;;;;;;;21.52;11.25;;;;;;;18.00;76.27;99012.73;1482756;79;80970;-70
2022/06/29 01:40:53;;;;;;;14.40;11.65;;;;;;;17.99;76.31;99008.36;1484609;79;21046;-69
2022/06/29 01:42:56;;;;;;;20.48;11.18;;;;;;;18.01;76.42;99008.61;1485977;79;21039;-69
2022/06/29 01:44:57;;;;;;;14.90;10.82;;;;;;;18.04;76.48;99012.83;1480746;79;81733;-69
2022/06/29 01:46:58;;;;;;;13.15;11.68;;;;;;;18.08;76.50;99008.11;1486123;79;21005;-70
2022/06/29 01:48:59;;;;;;;21.93;11.22;;;;;;;18.09;76.46;98999.98;1481166;79;21005;-68
2022/06/29 01:51:00;;;;;;;20.10;12.15;;;;;;;18.10;76.46;99000.36;1479338;79;81810;-69
2022/06/29 01:53:01;;;;;;;14.45;10.53;;;;;;;18.13;76.45;99009.94;1483890;79;21480;-69
2022/06/29 01:55:03;;;;;;;14.75;11.25;;;;;;;18.14;76.43;99012.48;1484255;79;21036;-68
2022/06/29 01:57:05;;;;;;;20.48;12.75;;;;;;;18.13;76.40;99004.11;1481077;79;81341;-69
2022/06/29 01:59:09;;;;;;;23.50;12.60;;;;;;;18.13;76.42;99004.11;1484479;79;21074;-68
2022/06/29 02:01:09;;;;;;;26.90;11.95;;;;;;;18.14;76.42;99009.81;1483425;79;21374;-69
2022/06/29 02:03:11;;;;;;;18.25;10.93;;;;;;;18.13;76.46;99020.11;1481895;79;81533;-69
2022/06/29 02:05:14;;;;;;;20.25;11.78;;;;;;;18.14;76.48;99026.31;1484926;79;20992;-68
2022/06/29 02:07:14;;;;;;;14.65;10.75;;;;;;;18.13;76.53;99012.11;1483268;79;82382;-68
2022/06/29 02:09:16;;;;;;;28.98;11.78;;;;;;;18.16;76.55;99022.53;1482724;79;21007;-69
2022/06/29 02:11:17;;;;;;;21.57;10.72;;;;;;;18.15;76.56;99022.66;1483443;79;21011;-69
2022/06/29 02:13:18;;;;;;;20.10;12.03;;;;;;;18.15;76.60;99020.86;1485787;79;81372;-69
2022/06/29 02:15:19;;;;;;;19.37;11.60;;;;;;;18.17;76.62;99025.57;1485972;79;21012;-69
2022/06/29 02:17:22;;;;;;;20.50;10.82;;;;;;;18.19;76.66;99014.31;1486002;79;20988;-69
2022/06/29 02:19:23;;;;;;;23.62;11.60;;;;;;;18.20;76.64;99002.64;1486281;79;81926;-69
2022/06/29 02:21:24;;;;;;;13.78;10.88;;;;;;;18.21;76.67;98989.67;1483384;79;21000;-69
2022/06/29 02:23:25;;;;;;;19.05;11.38;;;;;;;18.21;76.71;98978.16;1487639;79;20960;-69
2022/06/29 02:25:27;;;;;;;25.00;10.53;;;;;;;18.21;76.67;98974.16;1484087;79;82059;-69
2022/06/29 02:27:27;;;;;;;14.98;11.48;;;;;;;18.18;76.67;98980.59;1487498;79;21496;-69
2022/06/29 02:29:28;;;;;;;17.82;11.85;;;;;;;18.16;76.68;98989.19;1483967;79;20966;-68
2022/06/29 02:36:09;;;;;;;21.70;10.75;;;;;;;18.14;76.68;98991.14;1484589;79;21623;-69
2022/06/29 02:38:10;;;;;;;20.27;12.63;;;;;;;18.15;76.65;98999.98;1482910;79;81640;-72
2022/06/29 02:40:12;;;;;;;18.15;11.43;;;;;;;18.13;76.69;98993.44;1483701;79;21028;-70
2022/06/29 02:42:13;;;;;;;22.10;12.70;;;;;;;18.13;76.72;98993.44;1483614;79;20996;-70
2022/06/29 02:44:14;;;;;;;16.27;11.88;;;;;;;18.12;76.74;98990.40;1486291;79;81703;-70
2022/06/29 02:46:15;;;;;;;49.20;12.03;;;;;;;18.13;76.72;98992.59;1484252;79;21535;-70
2022/06/29 02:48:16;;;;;;;15.60;12.25;;;;;;;18.10;76.72;98993.69;1483084;79;21098;-70
2022/06/29 02:50:18;;;;;;;17.02;12.53;;;;;;;18.10;76.77;98988.84;1481863;79;80823;-69
2022/06/29 02:52:19;;;;;;;14.63;11.80;;;;;;;18.10;76.78;98992.35;1486050;79;21004;-69
2022/06/29 02:54:20;;;;;;;18.23;11.68;;;;;;;18.10;76.76;98984.35;1486273;79;21009;-69
2022/06/29 02:56:21;;;;;;;16.00;11.28;;;;;;;18.08;76.73;98984.94;1483528;79;81143;-70
2022/06/29 02:58:22;;;;;;;15.88;12.18;;;;;;;18.07;76.75;98993.94;1481606;79;21485;-69
2022/06/29 03:00:23;;;;;;;20.95;12.47;;;;;;;18.07;76.76;98991.73;1483544;79;21024;-69
2022/06/29 03:02:24;;;;;;;15.48;11.97;;;;;;;18.07;76.79;98995.27;1485970;79;81221;-70
2022/06/29 03:04:25;;;;;;;15.53;11.73;;;;;;;18.06;76.82;98986.90;1486439;79;20992;-70
2022/06/29 03:06:26;;;;;;;20.48;12.75;;;;;;;18.07;76.82;98993.94;1463819;80;21459;-69
2022/06/29 03:08:28;;;;;;;17.27;12.28;;;;;;;18.08;76.83;98998.28;1482754;79;80992;-68
2022/06/29 03:10:29;;;;;;;16.12;13.03;;;;;;;18.07;76.84;98989.94;1482312;79;21020;-69
2022/06/29 03:12:30;;;;;;;20.82;12.93;;;;;;;18.07;76.85;98988.60;1484830;79;20997;-69
2022/06/29 03:14:31;;;;;;;22.40;12.55;;;;;;;18.07;76.91;98989.94;1483077;79;82125;-69
2022/06/29 03:16:33;;;;;;;22.85;13.58;;;;;;;18.07;76.89;98993.06;1479193;79;21035;-70
2022/06/29 03:18:34;;;;;;;21.77;13.75;;;;;;;18.05;76.94;98990.53;1478578;79;21043;-70
2022/06/29 03:20:34;;;;;;;19.75;14.00;;;;;;;18.06;76.95;98984.23;1476661;79;80934;-69
2022/06/29 03:22:35;;;;;;;;;;;;;;;18.08;76.96;98990.28;1480339;79;20949;-69
2022/06/29 03:24:36;;;;;;;30.97;15.15;;;;;;;18.08;77.10;98990.28;1477653;79;20439;-69
2022/06/29 03:26:39;;;;;;;26.35;14.20;;;;;;;18.09;77.11;98991.98;1477300;79;81741;-69
2022/06/29 03:28:41;;;;;;;25.08;14.73;;;;;;;18.13;77.10;98989.93;1477741;79;21363;-69
2022/06/29 03:30:44;;;;;;;26.27;14.63;;;;;;;18.15;77.09;98983.97;1474923;79;20980;-70
2022/06/29 03:32:45;;;;;;;26.42;16.05;;;;;;;18.17;77.10;98984.72;1478931;79;81638;-68
2022/06/29 03:34:46;;;;;;;31.52;15.03;;;;;;;18.20;77.12;98984.47;1474703;79;21032;-69
2022/06/29 03:36:47;;;;;;;26.60;15.63;;;;;;;18.23;77.12;98982.04;1477838;79;22250;-70
2022/06/29 03:38:48;;;;;;;25.32;14.68;;;;;;;18.28;77.14;98986.53;1474935;79;80865;-69
2022/06/29 03:40:49;;;;;;;21.60;14.63;;;;;;;18.29;77.13;98975.73;1476426;79;21537;-69
2022/06/29 03:42:50;;;;;;;26.73;15.40;;;;;;;18.32;77.13;98966.14;1477436;79;21032;-69
2022/06/29 03:44:51;;;;;;;30.32;15.63;;;;;;;18.36;77.11;98958.75;1476542;79;82134;-69
2022/06/29 03:46:52;;;;;;;16.97;14.25;;;;;;;18.40;77.15;98966.00;1477731;79;21033;-69
2022/06/29 03:48:53;;;;;;;19.00;14.87;;;;;;;18.42;77.16;98960.91;1476039;79;21488;-69
2022/06/29 03:50:54;;;;;;;22.80;14.80;;;;;;;18.46;77.13;98965.52;1474560;79;81801;-69
2022/06/29 03:52:55;;;;;;;22.95;15.10;;;;;;;18.45;77.08;98955.31;1480307;79;21378;-70
2022/06/29 03:54:56;;;;;;;27.40;15.25;;;;;;;18.45;77.08;98959.81;1476665;79;22190;-69
2022/06/29 03:56:57;;;;;;;25.95;15.30;;;;;;;18.45;77.05;98961.14;1474854;79;80946;-70
2022/06/29 03:58:58;;;;;;;18.70;15.03;;;;;;;18.42;77.09;98960.91;1477652;79;21559;-69
2022/06/29 04:00:59;;;;;;;26.57;15.98;;;;;;;18.47;77.11;98966.72;1477511;79;20985;-69
2022/06/29 04:03:02;;;;;;;;;;;;;;;18.49;77.09;98966.59;1477533;79;81273;-69
2022/06/29 04:05:04;;;;;;;29.35;16.93;;;;;;;18.51;77.16;98959.30;1476649;79;20179;-69
2022/06/29 04:07:05;;;;;;;22.27;18.45;;;;;;;18.50;77.14;98963.80;1479914;79;21277;-69
2022/06/29 04:09:06;;;;;;;25.02;17.32;;;;;;;18.50;77.10;98955.80;1473950;79;81977;-69
2022/06/29 04:11:48;;;;;;;25.77;18.87;;;;;;;18.52;77.11;98956.50;1475791;79;21039;-69
2022/06/29 04:13:10;;;;;;;25.75;19.40;;;;;;;18.53;77.10;98958.20;1476236;79;21393;-69
2022/06/29 04:15:11;;;;;;;31.87;19.45;;;;;;;18.54;77.11;98957.23;1456606;81;80818;-70
2022/06/29 04:17:12;;;;;;;38.90;20.52;;;;;;;18.54;77.13;98957.73;1479294;79;20950;-69
2022/06/29 04:19:13;;;;;;;29.15;21.05;;;;;;;18.55;77.15;98964.28;1474755;79;20997;-71
2022/06/29 04:21:15;;;;;;;31.23;21.68;;;;;;;18.57;77.12;98963.28;1473100;79;81164;-70
2022/06/29 04:23:15;;;;;;;41.65;22.95;;;;;;;18.58;77.17;98960.98;1479924;79;20996;-70
2022/06/29 04:25:17;;;;;;;34.73;23.18;;;;;;;18.59;77.14;98961.36;1475579;79;82446;-70
2022/06/29 04:27:37;;;;;;;36.98;22.40;;;;;;;18.59;77.21;98960.02;1386344;84;22047;-69
2022/06/29 04:29:39;;;;;;;28.38;22.10;;;;;;;18.58;77.24;98960.98;1388216;84;21031;-70
2022/06/29 04:31:40;;;;;;;30.70;23.12;;;;;;;18.60;77.27;98960.39;1387586;82;81046;-70
2022/06/29 04:33:41;;;;;;;28.87;22.90;;;;;;;18.62;77.29;98962.43;1389260;84;20996;-70
2022/06/29 04:35:42;;;;;;;36.95;25.05;;;;;;;18.65;77.35;98962.17;1391282;84;22284;-70
2022/06/29 04:37:43;;;;;;;35.30;24.95;;;;;;;18.70;77.31;98959.98;1377340;84;81757;-70
2022/06/29 04:39:44;;;;;;;33.73;24.05;;;;;;;18.71;77.29;98960.35;1354733;86;21095;-70
2022/06/29 04:41:45;;;;;;;43.05;23.90;;;;;;;18.73;77.26;98958.39;1378048;84;20973;-69
2022/06/29 04:43:47;;;;;;;35.83;24.87;;;;;;;18.75;77.28;98957.79;1388677;85;81140;-70
2022/06/29 04:48:36;;;;;;;36.35;23.90;;;;;;;18.80;77.27;98958.73;1374764;85;21599;-70
2022/06/29 04:50:36;;;;;;;34.30;24.77;;;;;;;18.80;77.29;98954.26;1411664;82;82133;-69
2022/06/29 04:52:37;;;;;;;32.48;23.00;;;;;;;18.82;77.24;98954.97;1412411;82;21559;-69
2022/06/29 04:54:39;;;;;;;36.05;24.70;;;;;;;18.82;77.24;98956.30;1400937;83;21017;-69
2022/06/29 04:56:40;;;;;;;35.43;25.82;;;;;;;18.87;77.32;98960.81;1399787;83;82219;-69
2022/06/29 04:58:43;;;;;;;37.28;25.65;;;;;;;18.95;77.32;98956.65;1401001;83;21079;-69
2022/06/29 05:00:44;;;;;;;33.20;23.52;;;;;;;18.98;77.25;98959.05;1400732;83;21074;-69
2022/06/29 05:02:45;;;;;;;33.88;25.23;;;;;;;19.02;77.23;98965.84;1378784;83;82077;-69
2022/06/29 05:04:48;;;;;;;36.33;24.25;;;;;;;19.08;77.29;98961.80;1382962;84;21065;-69
2022/06/29 05:06:49;;;;;;;37.28;23.57;;;;;;;19.14;77.23;98967.48;1382622;84;21045;-69
2022/06/29 05:08:50;;;;;;;33.50;23.45;;;;;;;19.19;77.17;98967.95;1387188;84;80898;-69
2022/06/29 05:10:53;;;;;;;35.05;23.55;;;;;;;19.23;77.07;98964.05;1388184;84;21504;-69
2022/06/29 05:12:54;;;;;;;33.05;25.32;;;;;;;19.22;76.96;98966.35;1388369;84;20981;-69
2022/06/29 05:14:55;;;;;;;33.53;23.47;;;;;;;19.23;76.96;98960.51;1386590;84;80934;-68
2022/06/29 05:16:56;;;;;;;33.18;22.40;;;;;;;19.23;76.96;98965.84;1389900;84;21383;-69
2022/06/29 05:18:57;;;;;;;28.32;22.55;;;;;;;19.27;77.00;98961.11;1388349;84;21075;-69
2022/06/29 05:20:58;;;;;;;33.78;22.10;;;;;;;19.29;76.94;98963.17;1387675;84;80974;-69
2022/06/29 05:22:59;;;;;;;40.15;22.62;;;;;;;19.25;76.93;98961.74;1389647;84;21627;-69
2022/06/29 05:25:01;;;;;;;42.65;22.32;;;;;;;19.25;76.95;98955.06;1389756;84;21041;-69
2022/06/29 05:27:02;;;;;;;31.33;22.32;;;;;;;19.29;76.94;98960.00;1374097;84;82082;-69
2022/06/29 05:29:03;;;;;;;29.30;22.98;;;;;;;19.34;76.96;98954.26;1367849;85;21067;-69
2022/06/29 05:31:04;;;;;;;32.28;21.97;;;;;;;19.41;76.91;98960.77;1366901;84;21044;-70
2022/06/29 05:33:05;;;;;;;35.55;22.15;;;;;;;19.50;76.98;98959.99;1356888;85;82199;-69
2022/06/29 05:35:08;;;;;;;28.10;20.37;;;;;;;19.58;76.82;98963.36;1354105;85;21008;-69
2022/06/29 05:37:09;;;;;;;30.12;20.17;;;;;;;19.63;76.70;98966.96;1355131;85;21052;-71
2022/06/29 05:39:10;;;;;;;29.52;21.65;;;;;;;19.70;76.71;98962.30;1384067;83;82008;-68
2022/06/29 05:41:11;;;;;;;32.83;21.77;;;;;;;19.72;76.49;98964.84;1388336;85;21024;-70
2022/06/29 05:43:12;;;;;;;36.90;21.82;;;;;;;19.71;76.46;98965.81;1376303;85;22019;-69
2022/06/29 05:45:13;;;;;;;29.37;20.40;;;;;;;19.71;76.42;98966.64;1366284;85;81642;-69
2022/06/29 05:47:14;;;;;;;35.78;20.70;;;;;;;19.69;76.37;98964.61;1365433;85;21408;-69
2022/06/29 05:49:15;;;;;;;39.55;20.23;;;;;;;19.70;76.41;98964.11;1364870;85;21016;-69
2022/06/29 05:51:16;;;;;;;30.12;19.98;;;;;;;19.68;76.42;98966.08;1363890;85;81938;-69
2022/06/29 05:53:17;;;;;;;36.25;20.12;;;;;;;19.67;76.47;98971.06;1364243;85;21044;-70
2022/06/29 05:55:19;;;;;;;23.77;19.20;;;;;;;19.72;76.55;98972.36;1362840;85;81437;-69
2022/06/29 05:57:19;;;;;;;24.85;19.32;;;;;;;19.73;76.40;98965.20;1364815;85;21112;-68
2022/06/29 05:59:23;;;;;;;29.00;19.15;;;;;;;19.73;76.43;98958.02;1366470;85;21013;-69
2022/06/29 06:01:24;;;;;;;32.33;18.98;;;;;;;19.77;76.47;98957.27;1364478;85;82035;-69
2022/06/29 06:03:25;;;;;;;27.80;18.95;;;;;;;19.81;76.45;98956.53;1376413;85;21532;-69
2022/06/29 06:05:26;;;;;;;26.23;18.60;;;;;;;19.83;76.42;98951.41;1366494;85;21093;-69
2022/06/29 06:07:28;;;;;;;36.68;18.98;;;;;;;19.86;76.34;98955.14;1365459;84;81229;-69
2022/06/29 06:09:29;;;;;;;32.28;18.23;;;;;;;19.91;76.39;98950.75;1365981;84;21034;-68
2022/06/29 06:11:29;;;;;;;20.57;18.27;;;;;;;19.94;76.22;98957.63;1367138;85;21628;-69
2022/06/29 06:13:31;;;;;;;25.05;19.00;;;;;;;19.94;76.22;98957.63;1366593;84;82163;-69
2022/06/29 06:15:33;;;;;;;24.18;18.95;;;;;;;19.99;76.12;98971.46;1367473;84;21172;-69
2022/06/29 06:17:35;;;;;;;22.65;19.12;;;;;;;19.97;76.07;98975.61;1364974;85;21525;-70
2022/06/29 06:19:35;;;;;;;24.40;18.35;;;;;;;19.97;76.12;98971.59;1364008;85;81242;-69
2022/06/29 06:21:36;;;;;;;28.23;18.52;;;;;;;20.00;76.12;98967.31;1365604;85;21652;-69
2022/06/29 06:23:37;;;;;;;23.07;18.05;;;;;;;20.03;76.15;98971.55;1365468;84;21073;-69
2022/06/29 06:25:39;;;;;;;28.77;18.42;;;;;;;20.10;76.19;98977.22;1365063;85;80981;-69
2022/06/29 06:27:41;;;;;;;59.83;20.57;;;;;;;20.16;76.12;98973.98;1388905;83;21234;-68
2022/06/29 06:29:44;;;;;;;54.38;20.05;;;;;;;20.20;76.04;98970.92;1397222;83;21077;-69
2022/06/29 06:31:46;;;;;;;20.97;17.25;;;;;;;20.29;76.08;98975.94;1398212;83;81753;-68
2022/06/29 06:33:46;;;;;;;30.52;18.32;;;;;;;20.36;75.93;98966.38;1399825;83;21553;-69
2022/06/29 06:35:47;;;;;;;32.88;19.98;;;;;;;20.39;75.81;98954.55;1398308;83;21014;-69
2022/06/29 06:37:48;;;;;;;33.30;19.42;;;;;;;20.46;75.97;98951.67;1398080;83;80820;-69
2022/06/29 06:42:09;;;;;;;32.58;17.67;;;;;;;20.56;75.71;98951.21;1398537;83;21161;-69
2022/06/29 06:44:10;;;;;;;24.07;17.48;;;;;;;20.54;75.55;98950.48;1398132;83;81038;-69
2022/06/29 06:46:11;;;;;;;28.23;16.73;;;;;;;20.55;75.52;98960.22;1397170;83;21010;-69
2022/06/29 06:48:12;;;;;;;19.62;17.05;;;;;;;20.57;75.49;98956.93;1399846;83;21402;-69
2022/06/29 06:50:13;;;;;;;20.62;18.27;;;;;;;20.58;75.54;98955.09;1396597;83;81173;-69
2022/06/29 06:52:16;;;;;;;45.05;28.40;;;;;;;20.65;75.63;98960.23;1399393;83;21066;-70
2022/06/29 06:54:17;;;;;;;51.48;26.37;;;;;;;20.68;75.44;98957.80;1397517;83;21042;-70
2022/06/29 06:56:18;;;;;;;45.05;26.93;;;;;;;20.73;75.45;98952.89;1398031;83;82108;-70
2022/06/29 06:58:20;;;;;;;34.38;22.70;;;;;;;20.80;75.40;98943.80;1399243;83;21046;-68
2022/06/29 07:00:21;;;;;;;33.00;19.45;;;;;;;20.80;75.25;98945.14;1398593;83;21002;-68
2022/06/29 07:02:22;;;;;;;33.40;20.15;;;;;;;20.84;75.25;98944.71;1397926;83;81022;-69
2022/06/29 07:04:23;;;;;;;26.40;20.65;;;;;;;20.90;75.21;98940.12;1398999;83;21426;-69
2022/06/29 07:06:24;;;;;;;29.42;18.55;;;;;;;20.97;75.31;98941.74;1399161;83;21120;-70
2022/06/29 07:08:25;;;;;;;25.40;18.70;;;;;;;21.05;75.19;98944.56;1397112;84;81785;-70
2022/06/29 07:10:27;;;;;;;26.65;18.25;;;;;;;21.13;75.09;98937.64;1398780;83;21057;-69
2022/06/29 07:12:28;;;;;;;23.75;18.32;;;;;;;21.21;75.17;98935.95;1398829;83;21712;-69
2022/06/29 07:14:30;;;;;;;21.40;19.10;;;;;;;21.32;75.03;98928.73;1397186;83;81204;-69
2022/06/29 07:16:31;;;;;;;27.25;18.45;;;;;;;21.36;74.89;98928.79;1397702;83;21089;-68
2022/06/29 07:18:34;;;;;;;28.35;20.08;;;;;;;21.39;74.92;98926.68;1398527;83;21066;-69
2022/06/29 07:20:35;;;;;;;28.77;20.15;;;;;;;21.49;74.79;98920.42;1397814;83;81084;-69
2022/06/29 07:22:36;;;;;;;25.02;18.35;;;;;;;21.55;74.76;98921.23;1400700;83;21171;-69
2022/06/29 07:24:37;;;;;;;22.35;18.73;;;;;;;21.58;74.53;98920.42;1399249;83;21066;-69
2022/06/29 07:26:38;;;;;;;22.65;18.95;;;;;;;21.70;74.75;98912.23;1397569;83;82081;-69
2022/06/29 07:28:39;;;;;;;21.25;17.45;;;;;;;21.89;74.86;98917.52;1400872;83;21130;-69
2022/06/29 07:30:41;;;;;;;37.20;19.23;;;;;;;22.05;74.74;98924.07;1399437;83;21109;-69
2022/06/29 07:32:41;;;;;;;32.85;19.57;;;;;;;22.25;74.78;98921.63;1398258;83;81062;-69
2022/06/29 07:34:43;;;;;;;31.05;20.75;;;;;;;22.44;74.59;98923.88;1399391;83;21061;-69
2022/06/29 07:36:44;;;;;;;34.50;21.50;;;;;;;22.61;74.34;98915.51;1400260;83;21506;-69
2022/06/29 07:38:45;;;;;;;44.45;24.47;;;;;;;22.70;73.97;98913.22;1398101;83;82179;-70
2022/06/29 07:40:46;;;;;;;32.35;23.77;;;;;;;22.72;73.65;98913.06;1398273;83;21030;-69
2022/06/29 07:42:48;;;;;;;33.85;21.80;;;;;;;22.72;73.71;98916.62;1399532;83;21062;-70
2022/06/29 07:44:49;;;;;;;46.65;24.25;;;;;;;22.79;73.74;98919.54;1398633;83;80990;-69
2022/06/29 07:46:50;;;;;;;35.50;23.73;;;;;;;22.86;73.42;98913.89;1400509;83;21090;-70
2022/06/29 07:48:51;;;;;;;35.25;21.55;;;;;;;22.90;73.13;98908.55;1399768;83;21062;-70
2022/06/29 07:50:53;;;;;;;30.20;21.42;;;;;;;22.92;73.15;98911.91;1398849;83;81476;-69
2022/06/29 07:52:54;;;;;;;27.35;20.68;;;;;;;23.01;73.05;98908.81;1398828;83;21050;-70
2022/06/29 07:54:55;;;;;;;37.25;22.93;;;;;;;23.13;73.04;98909.42;1367754;85;21013;-70
2022/06/29 07:56:56;;;;;;;27.20;19.75;;;;;;;23.10;72.87;98905.16;1418090;82;80853;-70
2022/06/29 07:59:00;;;;;;;27.32;18.98;;;;;;;23.13;72.52;98898.16;1399384;83;21483;-70
2022/06/29 08:01:00;;;;;;;34.50;19.07;;;;;;;23.19;72.75;98902.57;1399174;83;21102;-70
2022/06/29 08:03:01;;;;;;;24.45;16.42;;;;;;;23.23;72.63;98901.25;1397900;83;81796;-70
2022/06/29 08:05:03;;;;;;;44.38;16.80;;;;;;;23.28;72.65;98893.05;1398469;83;21090;-68
2022/06/29 08:07:04;;;;;;;26.00;17.75;;;;;;;23.35;72.30;98900.00;1371206;85;21144;-70
2022/06/29 08:09:05;;;;;;;25.25;16.17;;;;;;;23.44;72.50;98908.95;1418849;82;82087;-69
2022/06/29 08:11:07;;;;;;;25.68;13.43;;;;;;;23.51;72.54;98903.78;1419880;82;21001;-69
2022/06/29 08:13:09;;;;;;;35.20;13.65;;;;;;;23.51;72.06;98903.31;1418908;82;21095;-70
2022/06/29 08:15:10;;;;;;;23.92;15.20;;;;;;;23.56;72.29;98896.09;1418920;82;81888;-69
2022/06/29 08:17:11;;;;;;;43.00;15.15;;;;;;;23.68;71.90;98892.64;1419031;82;21036;-69
2022/06/29 08:19:12;;;;;;;40.85;15.05;;;;;;;23.68;71.64;98892.64;1421055;82;21053;-69
2022/06/29 08:21:13;;;;;;;23.35;13.20;;;;;;;23.73;71.29;98897.02;1419055;82;81062;-70
2022/06/29 08:23:14;;;;;;;29.90;12.30;;;;;;;23.75;71.68;98892.33;1419890;82;21572;-70
2022/06/29 08:25:15;;;;;;;28.70;11.63;;;;;;;23.85;71.71;98889.00;1420244;82;21088;-70
2022/06/29 08:27:22;;;;;;;28.23;12.90;;;;;;;23.94;71.49;98888.07;1413670;82;81611;-68
2022/06/29 08:29:24;;;;;;;37.55;12.88;;;;;;;24.00;71.31;98885.23;1404766;83;21542;-70
2022/06/29 08:31:25;;;;;;;38.13;11.93;;;;;;;24.08;71.24;98883.08;1404612;83;82281;-69
2022/06/29 08:33:26;;;;;;;26.30;11.70;;;;;;;24.08;71.01;98877.19;1405653;83;21022;-69
2022/06/29 08:35:27;;;;;;;24.98;12.03;;;;;;;24.15;71.18;98873.34;1405641;83;21319;-69
2022/06/29 08:37:28;;;;;;;23.07;12.35;;;;;;;24.28;70.79;98868.30;1403419;83;81237;-70
2022/06/29 08:39:32;;;;;;;18.00;10.45;;;;;;;24.41;70.73;98876.41;1404420;83;21049;-69
2022/06/29 08:41:34;;;;;;;26.23;11.05;;;;;;;24.52;70.67;98874.77;1405473;84;21026;-69
2022/06/29 08:43:35;;;;;;;21.17;10.72;;;;;;;24.62;70.40;98863.86;1403217;83;82028;-70
2022/06/29 08:45:40;;;;;;;28.98;10.23;;;;;;;24.68;70.23;98861.00;1403876;83;21021;-69
2022/06/29 08:47:42;;;;;;;22.67;10.53;;;;;;;24.76;70.22;98865.05;1404681;83;21094;-70
2022/06/29 08:49:46;;;;;;;27.75;10.10;;;;;;;24.89;70.28;98853.23;1404636;83;90686;-70
2022/06/29 08:51:48;;;;;;;24.37;10.80;;;;;;;25.07;70.05;98857.61;1404548;83;21066;-69
2022/06/29 08:53:51;;;;;;;21.93;10.28;;;;;;;25.15;69.59;98853.55;1405583;84;21034;-69
2022/06/29 08:55:55;;;;;;;22.52;11.05;;;;;;;25.27;69.05;98854.88;1403292;83;81228;-69
2022/06/29 08:57:57;;;;;;;18.05;11.18;;;;;;;25.42;68.78;98854.20;1407146;83;21083;-69
2022/06/29 08:59:58;;;;;;;33.00;9.93;;;;;;;25.49;68.91;98856.56;1405693;83;21075;-69
2022/06/29 09:01:59;;;;;;;23.65;9.63;;;;;;;25.60;68.57;98853.97;1403624;83;81981;-70
2022/06/29 09:04:01;;;;;;;24.32;10.48;;;;;;;25.60;67.43;98854.83;1405327;83;21039;-69
2022/06/29 09:06:06;;;;;;;29.27;10.50;;;;;;;25.54;67.79;98849.28;1404696;83;21026;-69
2022/06/29 09:08:07;;;;;;;23.55;10.45;;;;;;;25.47;67.06;98849.13;1403190;83;81627;-69
2022/06/29 09:10:11;;;;;;;26.23;9.83;;;;;;;25.47;67.71;98850.48;1405371;83;20951;-70
2022/06/29 09:12:16;;;;;;;40.33;10.28;;;;;;;25.59;68.13;98846.39;1403735;83;21601;-70
2022/06/29 09:14:23;;;;;;;25.43;10.28;;;;;;;25.72;68.05;98851.23;1404207;83;81313;-69
2022/06/29 09:16:24;;;;;;;24.55;10.98;;;;;;;25.89;67.55;98852.02;1404546;83;21017;-70
2022/06/29 09:18:30;;;;;;;24.63;9.95;;;;;;;25.97;67.48;98853.30;1404121;84;21052;-69
2022/06/29 09:20:40;;;;;;;20.70;10.08;;;;;;;25.90;66.97;98852.33;1403119;83;81937;-70
2022/06/29 09:22:43;;;;;;;31.55;11.25;;;;;;;25.88;66.74;98849.47;1403578;83;21045;-70
2022/06/29 09:24:45;;;;;;;39.80;11.48;;;;;;;25.95;67.25;98845.08;1403747;83;21095;-70
2022/06/29 09:26:57;;;;;;;16.77;10.75;;;;;;;26.00;66.07;98844.02;1404583;83;81853;-70
2022/06/29 09:28:58;;;;;;;24.20;10.60;;;;;;;25.96;66.44;98842.19;1418713;82;21545;-69